sensor_id;sensor_type;location;lat;lon;timestamp;temperature;humidity
14850;DHT22;7517;48.400;11.770;2022-07-09T00:00:11;17.40;64.10
14850;DHT22;7517;48.400;11.770;2022-07-09T00:02:39;17.30;64.10
14850;DHT22;7517;48.400;11.770;2022-07-09T00:05:07;17.30;64.10
14850;DHT22;7517;48.400;11.770;2022-07-09T00:07:37;17.30;64.40
14850;DHT22;7517;48.400;11.770;2022-07-09T00:10:05;17.30;64.40
14850;DHT22;7517;48.400;11.770;2022-07-09T00:12:32;16.00;63.50
14850;DHT22;7517;48.400;11.770;2022-07-09T00:15:00;17.20;64.50
14850;DHT22;7517;48.400;11.770;2022-07-09T00:17:29;17.20;64.60
14850;DHT22;7517;48.400;11.770;2022-07-09T00:19:57;17.20;64.60
14850;DHT22;7517;48.400;11.770;2022-07-09T00:22:24;17.20;64.50
14850;DHT22;7517;48.400;11.770;2022-07-09T00:24:54;17.20;64.60
14850;DHT22;7517;48.400;11.770;2022-07-09T00:27:21;17.20;64.60
14850;DHT22;7517;48.400;11.770;2022-07-09T00:29:48;17.20;64.50
14850;DHT22;7517;48.400;11.770;2022-07-09T00:32:16;17.10;64.50
14850;DHT22;7517;48.400;11.770;2022-07-09T00:34:43;17.10;64.70
14850;DHT22;7517;48.400;11.770;2022-07-09T00:37:11;17.10;64.80
14850;DHT22;7517;48.400;11.770;2022-07-09T00:39:38;17.10;64.90
14850;DHT22;7517;48.400;11.770;2022-07-09T00:42:08;17.10;65.00
14850;DHT22;7517;48.400;11.770;2022-07-09T00:44:36;17.00;65.00
14850;DHT22;7517;48.400;11.770;2022-07-09T00:47:05;17.00;65.00
14850;DHT22;7517;48.400;11.770;2022-07-09T00:49:38;17.00;65.10
14850;DHT22;7517;48.400;11.770;2022-07-09T00:52:10;17.00;65.30
14850;DHT22;7517;48.400;11.770;2022-07-09T00:54:39;16.90;65.40
14850;DHT22;7517;48.400;11.770;2022-07-09T00:57:10;16.90;65.40
14850;DHT22;7517;48.400;11.770;2022-07-09T00:59:39;16.90;65.40
14850;DHT22;7517;48.400;11.770;2022-07-09T01:02:07;16.90;65.40
14850;DHT22;7517;48.400;11.770;2022-07-09T01:04:36;16.90;65.40
14850;DHT22;7517;48.400;11.770;2022-07-09T01:07:05;16.80;65.40
14850;DHT22;7517;48.400;11.770;2022-07-09T01:09:32;16.80;65.50
14850;DHT22;7517;48.400;11.770;2022-07-09T01:12:00;16.80;65.60
14850;DHT22;7517;48.400;11.770;2022-07-09T01:14:29;16.80;66.30
14850;DHT22;7517;48.400;11.770;2022-07-09T01:16:58;16.90;65.70
14850;DHT22;7517;48.400;11.770;2022-07-09T01:19:26;16.90;65.60
14850;DHT22;7517;48.400;11.770;2022-07-09T01:21:55;16.90;65.50
14850;DHT22;7517;48.400;11.770;2022-07-09T01:24:23;16.90;65.50
14850;DHT22;7517;48.400;11.770;2022-07-09T01:26:53;16.90;65.40
14850;DHT22;7517;48.400;11.770;2022-07-09T01:29:20;16.90;65.40
14850;DHT22;7517;48.400;11.770;2022-07-09T01:31:49;16.90;65.30
14850;DHT22;7517;48.400;11.770;2022-07-09T01:34:16;16.90;65.30
14850;DHT22;7517;48.400;11.770;2022-07-09T01:36:43;16.90;65.40
14850;DHT22;7517;48.400;11.770;2022-07-09T01:39:12;16.90;65.50
14850;DHT22;7517;48.400;11.770;2022-07-09T01:41:40;16.90;65.60
14850;DHT22;7517;48.400;11.770;2022-07-09T01:44:07;16.90;65.50
14850;DHT22;7517;48.400;11.770;2022-07-09T01:46:34;16.90;65.60
14850;DHT22;7517;48.400;11.770;2022-07-09T01:49:02;16.90;65.70
14850;DHT22;7517;48.400;11.770;2022-07-09T01:51:29;17.00;65.80
14850;DHT22;7517;48.400;11.770;2022-07-09T01:53:57;17.00;66.00
14850;DHT22;7517;48.400;11.770;2022-07-09T01:56:26;17.00;66.10
14850;DHT22;7517;48.400;11.770;2022-07-09T01:58:53;17.10;66.10
14850;DHT22;7517;48.400;11.770;2022-07-09T02:01:20;17.10;66.20
14850;DHT22;7517;48.400;11.770;2022-07-09T02:03:47;17.10;66.20
14850;DHT22;7517;48.400;11.770;2022-07-09T02:06:14;17.20;66.00
14850;DHT22;7517;48.400;11.770;2022-07-09T02:08:42;17.20;66.00
14850;DHT22;7517;48.400;11.770;2022-07-09T02:11:09;17.20;66.00
14850;DHT22;7517;48.400;11.770;2022-07-09T02:13:38;17.30;65.90
14850;DHT22;7517;48.400;11.770;2022-07-09T02:16:06;17.30;65.90
14850;DHT22;7517;48.400;11.770;2022-07-09T02:18:33;17.30;66.10
14850;DHT22;7517;48.400;11.770;2022-07-09T02:21:01;17.30;66.10
14850;DHT22;7517;48.400;11.770;2022-07-09T02:23:30;17.40;66.00
14850;DHT22;7517;48.400;11.770;2022-07-09T02:25:57;17.40;66.10
14850;DHT22;7517;48.400;11.770;2022-07-09T02:28:25;17.40;66.10
14850;DHT22;7517;48.400;11.770;2022-07-09T02:30:53;17.50;66.20
14850;DHT22;7517;48.400;11.770;2022-07-09T02:33:20;17.50;66.30
14850;DHT22;7517;48.400;11.770;2022-07-09T02:35:48;17.50;66.30
14850;DHT22;7517;48.400;11.770;2022-07-09T02:38:15;17.60;66.30
14850;DHT22;7517;48.400;11.770;2022-07-09T02:40:42;17.60;66.50
14850;DHT22;7517;48.400;11.770;2022-07-09T02:43:09;17.60;66.60
14850;DHT22;7517;48.400;11.770;2022-07-09T02:45:37;17.60;66.70
14850;DHT22;7517;48.400;11.770;2022-07-09T02:48:05;17.70;66.60
14850;DHT22;7517;48.400;11.770;2022-07-09T02:50:33;17.70;66.40
14850;DHT22;7517;48.400;11.770;2022-07-09T02:53:00;17.70;66.20
14850;DHT22;7517;48.400;11.770;2022-07-09T02:55:27;17.70;66.10
14850;DHT22;7517;48.400;11.770;2022-07-09T02:57:54;17.80;66.10
14850;DHT22;7517;48.400;11.770;2022-07-09T03:00:21;17.80;66.10
14850;DHT22;7517;48.400;11.770;2022-07-09T03:02:48;17.80;66.10
14850;DHT22;7517;48.400;11.770;2022-07-09T03:05:17;17.80;66.10
14850;DHT22;7517;48.400;11.770;2022-07-09T03:07:45;17.80;66.00
14850;DHT22;7517;48.400;11.770;2022-07-09T03:10:12;17.90;66.00
14850;DHT22;7517;48.400;11.770;2022-07-09T03:12:39;17.90;65.90
14850;DHT22;7517;48.400;11.770;2022-07-09T03:15:07;17.90;65.80
14850;DHT22;7517;48.400;11.770;2022-07-09T03:17:35;17.90;65.80
14850;DHT22;7517;48.400;11.770;2022-07-09T03:20:03;17.90;65.80
14850;DHT22;7517;48.400;11.770;2022-07-09T03:22:32;18.00;65.90
14850;DHT22;7517;48.400;11.770;2022-07-09T03:25:00;18.00;66.00
14850;DHT22;7517;48.400;11.770;2022-07-09T03:27:27;18.00;66.10
14850;DHT22;7517;48.400;11.770;2022-07-09T03:29:54;18.00;65.90
14850;DHT22;7517;48.400;11.770;2022-07-09T03:32:21;18.00;65.90
14850;DHT22;7517;48.400;11.770;2022-07-09T03:34:49;18.00;65.90
14850;DHT22;7517;48.400;11.770;2022-07-09T03:37:17;18.10;66.10
14850;DHT22;7517;48.400;11.770;2022-07-09T03:39:46;18.10;66.00
14850;DHT22;7517;48.400;11.770;2022-07-09T03:42:14;18.10;66.00
14850;DHT22;7517;48.400;11.770;2022-07-09T03:44:41;18.10;65.90
14850;DHT22;7517;48.400;11.770;2022-07-09T03:47:09;18.10;66.00
14850;DHT22;7517;48.400;11.770;2022-07-09T03:49:36;18.10;66.10
14850;DHT22;7517;48.400;11.770;2022-07-09T03:52:04;18.10;66.30
14850;DHT22;7517;48.400;11.770;2022-07-09T03:54:31;18.20;66.20
14850;DHT22;7517;48.400;11.770;2022-07-09T03:57:00;18.20;66.10
14850;DHT22;7517;48.400;11.770;2022-07-09T03:59:27;18.20;66.00
14850;DHT22;7517;48.400;11.770;2022-07-09T04:01:54;18.20;66.00
14850;DHT22;7517;48.400;11.770;2022-07-09T04:04:22;18.20;65.80
14850;DHT22;7517;48.400;11.770;2022-07-09T04:06:49;18.30;65.90
14850;DHT22;7517;48.400;11.770;2022-07-09T04:09:16;18.30;65.90
14850;DHT22;7517;48.400;11.770;2022-07-09T04:11:43;18.30;65.90
14850;DHT22;7517;48.400;11.770;2022-07-09T04:14:12;18.30;65.80
14850;DHT22;7517;48.400;11.770;2022-07-09T04:16:39;18.30;65.80
14850;DHT22;7517;48.400;11.770;2022-07-09T04:19:08;18.40;65.80
14850;DHT22;7517;48.400;11.770;2022-07-09T04:21:35;18.40;65.80
14850;DHT22;7517;48.400;11.770;2022-07-09T04:24:03;18.40;65.60
14850;DHT22;7517;48.400;11.770;2022-07-09T04:26:30;18.40;65.50
14850;DHT22;7517;48.400;11.770;2022-07-09T04:28:57;18.50;66.40
14850;DHT22;7517;48.400;11.770;2022-07-09T04:31:26;18.50;65.70
14850;DHT22;7517;48.400;11.770;2022-07-09T04:33:53;18.50;65.60
14850;DHT22;7517;48.400;11.770;2022-07-09T04:36:20;18.50;65.60
14850;DHT22;7517;48.400;11.770;2022-07-09T04:38:47;18.60;65.70
14850;DHT22;7517;48.400;11.770;2022-07-09T04:41:15;18.60;65.60
14850;DHT22;7517;48.400;11.770;2022-07-09T04:43:42;18.60;65.40
14850;DHT22;7517;48.400;11.770;2022-07-09T04:46:09;18.70;65.50
14850;DHT22;7517;48.400;11.770;2022-07-09T04:48:38;18.70;66.30
14850;DHT22;7517;48.400;11.770;2022-07-09T04:51:05;18.70;65.50
14850;DHT22;7517;48.400;11.770;2022-07-09T04:53:32;18.80;65.60
14850;DHT22;7517;48.400;11.770;2022-07-09T04:55:59;18.80;65.60
14850;DHT22;7517;48.400;11.770;2022-07-09T04:58:28;18.90;65.50
14850;DHT22;7517;48.400;11.770;2022-07-09T05:00:55;18.90;65.30
14850;DHT22;7517;48.400;11.770;2022-07-09T05:03:22;18.90;65.50
14850;DHT22;7517;48.400;11.770;2022-07-09T05:05:51;19.00;65.60
14850;DHT22;7517;48.400;11.770;2022-07-09T05:08:19;19.00;65.60
14850;DHT22;7517;48.400;11.770;2022-07-09T05:10:46;19.10;65.60
14850;DHT22;7517;48.400;11.770;2022-07-09T05:13:13;19.10;65.40
14850;DHT22;7517;48.400;11.770;2022-07-09T05:15:40;19.10;65.30
14850;DHT22;7517;48.400;11.770;2022-07-09T05:18:07;19.20;65.40
14850;DHT22;7517;48.400;11.770;2022-07-09T05:20:34;19.20;65.50
14850;DHT22;7517;48.400;11.770;2022-07-09T05:23:03;19.20;65.50
14850;DHT22;7517;48.400;11.770;2022-07-09T05:25:30;19.30;65.40
14850;DHT22;7517;48.400;11.770;2022-07-09T05:27:57;19.30;65.10
14850;DHT22;7517;48.400;11.770;2022-07-09T05:30:24;19.30;64.90
14850;DHT22;7517;48.400;11.770;2022-07-09T05:32:52;19.40;65.10
14850;DHT22;7517;48.400;11.770;2022-07-09T05:35:19;19.40;65.10
14850;DHT22;7517;48.400;11.770;2022-07-09T05:37:46;19.40;64.90
14850;DHT22;7517;48.400;11.770;2022-07-09T05:40:14;19.50;64.80
14850;DHT22;7517;48.400;11.770;2022-07-09T05:42:41;19.50;64.70
14850;DHT22;7517;48.400;11.770;2022-07-09T05:45:09;19.50;64.80
14850;DHT22;7517;48.400;11.770;2022-07-09T05:47:37;19.50;64.80
14850;DHT22;7517;48.400;11.770;2022-07-09T05:50:05;19.50;64.70
14850;DHT22;7517;48.400;11.770;2022-07-09T05:52:33;19.60;64.70
14850;DHT22;7517;48.400;11.770;2022-07-09T05:55:00;19.60;64.50
14850;DHT22;7517;48.400;11.770;2022-07-09T05:57:30;19.60;64.50
14850;DHT22;7517;48.400;11.770;2022-07-09T05:59:58;19.60;64.50
14850;DHT22;7517;48.400;11.770;2022-07-09T06:02:25;19.60;64.40
14850;DHT22;7517;48.400;11.770;2022-07-09T06:04:52;19.60;64.30
14850;DHT22;7517;48.400;11.770;2022-07-09T06:07:20;19.60;64.20
14850;DHT22;7517;48.400;11.770;2022-07-09T06:09:47;19.60;64.30
14850;DHT22;7517;48.400;11.770;2022-07-09T06:12:14;19.60;64.30
14850;DHT22;7517;48.400;11.770;2022-07-09T06:14:42;19.60;64.20
14850;DHT22;7517;48.400;11.770;2022-07-09T06:17:09;19.60;64.30
14850;DHT22;7517;48.400;11.770;2022-07-09T06:19:37;19.60;64.40
14850;DHT22;7517;48.400;11.770;2022-07-09T06:22:04;19.60;64.30
14850;DHT22;7517;48.400;11.770;2022-07-09T06:24:31;19.60;64.30
14850;DHT22;7517;48.400;11.770;2022-07-09T06:26:58;19.60;64.40
14850;DHT22;7517;48.400;11.770;2022-07-09T06:29:26;19.70;64.60
14850;DHT22;7517;48.400;11.770;2022-07-09T06:31:54;19.70;64.60
14850;DHT22;7517;48.400;11.770;2022-07-09T06:34:25;19.70;64.70
14850;DHT22;7517;48.400;11.770;2022-07-09T06:36:52;19.80;64.60
14850;DHT22;7517;48.400;11.770;2022-07-09T06:39:19;19.80;64.50
14850;DHT22;7517;48.400;11.770;2022-07-09T06:42:05;19.90;64.60
14850;DHT22;7517;48.400;11.770;2022-07-09T06:44:33;19.90;64.50
14850;DHT22;7517;48.400;11.770;2022-07-09T06:49:33;20.00;64.30
14850;DHT22;7517;48.400;11.770;2022-07-09T06:52:01;20.10;64.40
14850;DHT22;7517;48.400;11.770;2022-07-09T06:54:28;20.10;64.60
14850;DHT22;7517;48.400;11.770;2022-07-09T06:56:55;20.20;64.70
14850;DHT22;7517;48.400;11.770;2022-07-09T06:59:23;20.30;64.50
14850;DHT22;7517;48.400;11.770;2022-07-09T07:01:50;20.40;64.60
14850;DHT22;7517;48.400;11.770;2022-07-09T07:04:18;20.40;64.30
14850;DHT22;7517;48.400;11.770;2022-07-09T07:06:47;20.50;64.20
14850;DHT22;7517;48.400;11.770;2022-07-09T07:09:15;20.50;64.10
14850;DHT22;7517;48.400;11.770;2022-07-09T07:11:44;20.60;64.20
14850;DHT22;7517;48.400;11.770;2022-07-09T07:14:11;20.70;64.40
14850;DHT22;7517;48.400;11.770;2022-07-09T07:16:38;20.70;64.10
14850;DHT22;7517;48.400;11.770;2022-07-09T07:19:06;20.80;64.00
14850;DHT22;7517;48.400;11.770;2022-07-09T07:21:34;20.90;64.00
14850;DHT22;7517;48.400;11.770;2022-07-09T07:24:03;21.00;63.80
14850;DHT22;7517;48.400;11.770;2022-07-09T07:26:31;21.10;63.70
14850;DHT22;7517;48.400;11.770;2022-07-09T07:28:58;21.20;63.30
14850;DHT22;7517;48.400;11.770;2022-07-09T07:31:26;21.20;63.20
14850;DHT22;7517;48.400;11.770;2022-07-09T07:33:55;21.30;63.30
14850;DHT22;7517;48.400;11.770;2022-07-09T07:36:22;21.40;63.50
14850;DHT22;7517;48.400;11.770;2022-07-09T07:38:49;21.50;63.10
14850;DHT22;7517;48.400;11.770;2022-07-09T07:41:18;21.60;62.80
14850;DHT22;7517;48.400;11.770;2022-07-09T07:43:46;21.60;62.10
14850;DHT22;7517;48.400;11.770;2022-07-09T07:46:14;21.70;62.00
14850;DHT22;7517;48.400;11.770;2022-07-09T07:48:41;21.80;61.90
14850;DHT22;7517;48.400;11.770;2022-07-09T07:51:09;21.80;61.90
14850;DHT22;7517;48.400;11.770;2022-07-09T07:53:37;22.00;61.90
14850;DHT22;7517;48.400;11.770;2022-07-09T07:56:05;22.00;61.80
14850;DHT22;7517;48.400;11.770;2022-07-09T07:58:34;22.10;61.80
14850;DHT22;7517;48.400;11.770;2022-07-09T08:01:02;22.20;61.90
14850;DHT22;7517;48.400;11.770;2022-07-09T08:03:29;22.40;62.20
14850;DHT22;7517;48.400;11.770;2022-07-09T08:05:56;22.50;62.00
14850;DHT22;7517;48.400;11.770;2022-07-09T08:08:23;22.60;61.20
14850;DHT22;7517;48.400;11.770;2022-07-09T08:10:51;22.70;61.20
14850;DHT22;7517;48.400;11.770;2022-07-09T08:13:18;22.80;61.00
14850;DHT22;7517;48.400;11.770;2022-07-09T08:15:47;22.90;60.60
14850;DHT22;7517;48.400;11.770;2022-07-09T08:18:14;23.10;60.00
14850;DHT22;7517;48.400;11.770;2022-07-09T08:20:41;23.30;59.90
14850;DHT22;7517;48.400;11.770;2022-07-09T08:23:10;23.40;60.50
14850;DHT22;7517;48.400;11.770;2022-07-09T08:25:37;23.60;60.50
14850;DHT22;7517;48.400;11.770;2022-07-09T08:28:04;23.70;59.60
14850;DHT22;7517;48.400;11.770;2022-07-09T08:30:32;23.90;59.60
14850;DHT22;7517;48.400;11.770;2022-07-09T08:33:00;24.10;59.60
14850;DHT22;7517;48.400;11.770;2022-07-09T08:35:27;24.30;58.90
14850;DHT22;7517;48.400;11.770;2022-07-09T08:37:55;24.40;58.80
14850;DHT22;7517;48.400;11.770;2022-07-09T08:40:22;24.60;58.30
14850;DHT22;7517;48.400;11.770;2022-07-09T08:42:53;24.70;57.70
14850;DHT22;7517;48.400;11.770;2022-07-09T08:45:21;24.90;56.80
14850;DHT22;7517;48.400;11.770;2022-07-09T08:47:52;25.00;56.90
14850;DHT22;7517;48.400;11.770;2022-07-09T08:50:21;25.10;56.50
14850;DHT22;7517;48.400;11.770;2022-07-09T08:52:51;25.20;56.30
14850;DHT22;7517;48.400;11.770;2022-07-09T08:55:21;25.40;56.10
14850;DHT22;7517;48.400;11.770;2022-07-09T08:57:49;25.50;55.50
14850;DHT22;7517;48.400;11.770;2022-07-09T09:00:17;25.60;55.00
14850;DHT22;7517;48.400;11.770;2022-07-09T09:02:44;25.70;55.10
14850;DHT22;7517;48.400;11.770;2022-07-09T09:05:13;25.80;55.10
14850;DHT22;7517;48.400;11.770;2022-07-09T09:07:43;25.90;55.20
14850;DHT22;7517;48.400;11.770;2022-07-09T09:10:20;26.00;54.60
14850;DHT22;7517;48.400;11.770;2022-07-09T09:12:49;26.10;54.10
14850;DHT22;7517;48.400;11.770;2022-07-09T09:15:21;26.20;54.60
14850;DHT22;7517;48.400;11.770;2022-07-09T09:17:48;26.30;54.60
14850;DHT22;7517;48.400;11.770;2022-07-09T09:20:16;26.50;54.50
14850;DHT22;7517;48.400;11.770;2022-07-09T09:22:47;26.60;54.00
14850;DHT22;7517;48.400;11.770;2022-07-09T09:25:17;26.80;53.80
14850;DHT22;7517;48.400;11.770;2022-07-09T09:27:55;26.90;53.00
14850;DHT22;7517;48.400;11.770;2022-07-09T09:30:23;27.10;52.00
14850;DHT22;7517;48.400;11.770;2022-07-09T09:32:55;27.30;52.20
14850;DHT22;7517;48.400;11.770;2022-07-09T09:35:24;27.50;51.60
14850;DHT22;7517;48.400;11.770;2022-07-09T09:37:53;27.60;51.50
14850;DHT22;7517;48.400;11.770;2022-07-09T09:40:21;27.70;50.30
14850;DHT22;7517;48.400;11.770;2022-07-09T09:42:49;27.80;50.90
14850;DHT22;7517;48.400;11.770;2022-07-09T09:45:16;27.90;50.40
14850;DHT22;7517;48.400;11.770;2022-07-09T09:47:46;28.00;50.20
14850;DHT22;7517;48.400;11.770;2022-07-09T09:50:17;28.10;50.00
14850;DHT22;7517;48.400;11.770;2022-07-09T09:52:46;28.20;49.70
14850;DHT22;7517;48.400;11.770;2022-07-09T09:55:17;28.20;49.80
14850;DHT22;7517;48.400;11.770;2022-07-09T09:57:46;28.30;49.70
14850;DHT22;7517;48.400;11.770;2022-07-09T10:00:15;28.40;49.60
14850;DHT22;7517;48.400;11.770;2022-07-09T10:02:44;28.50;49.20
14850;DHT22;7517;48.400;11.770;2022-07-09T10:05:13;28.70;49.60
14850;DHT22;7517;48.400;11.770;2022-07-09T10:07:40;28.80;49.80
14850;DHT22;7517;48.400;11.770;2022-07-09T10:10:18;29.00;49.70
14850;DHT22;7517;48.400;11.770;2022-07-09T10:12:47;29.20;47.60
14850;DHT22;7517;48.400;11.770;2022-07-09T10:15:22;29.30;48.10
14850;DHT22;7517;48.400;11.770;2022-07-09T10:18:09;29.30;46.80
14850;DHT22;7517;48.400;11.770;2022-07-09T10:20:37;29.30;46.00
14850;DHT22;7517;48.400;11.770;2022-07-09T10:23:09;29.30;46.70
14850;DHT22;7517;48.400;11.770;2022-07-09T10:25:50;29.20;46.40
14850;DHT22;7517;48.400;11.770;2022-07-09T10:28:21;29.10;46.30
14850;DHT22;7517;48.400;11.770;2022-07-09T10:30:51;28.90;46.70
14850;DHT22;7517;48.400;11.770;2022-07-09T10:33:22;28.90;46.90
14850;DHT22;7517;48.400;11.770;2022-07-09T10:35:52;28.70;46.90
14850;DHT22;7517;48.400;11.770;2022-07-09T10:38:20;28.60;46.80
14850;DHT22;7517;48.400;11.770;2022-07-09T10:40:58;28.40;46.30
14850;DHT22;7517;48.400;11.770;2022-07-09T10:43:40;28.30;46.60
14850;DHT22;7517;48.400;11.770;2022-07-09T10:46:12;28.20;46.90
14850;DHT22;7517;48.400;11.770;2022-07-09T10:48:40;28.10;47.00
14850;DHT22;7517;48.400;11.770;2022-07-09T10:51:08;28.00;47.40
14850;DHT22;7517;48.400;11.770;2022-07-09T10:53:35;27.90;47.80
14850;DHT22;7517;48.400;11.770;2022-07-09T10:56:04;27.80;48.10
14850;DHT22;7517;48.400;11.770;2022-07-09T10:58:32;27.80;47.80
14850;DHT22;7517;48.400;11.770;2022-07-09T11:01:01;27.80;46.90
14850;DHT22;7517;48.400;11.770;2022-07-09T11:03:31;27.70;46.80
14850;DHT22;7517;48.400;11.770;2022-07-09T11:05:58;27.70;46.40
14850;DHT22;7517;48.400;11.770;2022-07-09T11:08:26;27.70;47.20
14850;DHT22;7517;48.400;11.770;2022-07-09T11:10:53;27.70;47.50
14850;DHT22;7517;48.400;11.770;2022-07-09T11:13:24;27.70;47.60
14850;DHT22;7517;48.400;11.770;2022-07-09T11:15:58;27.70;47.50
14850;DHT22;7517;48.400;11.770;2022-07-09T11:18:27;27.70;47.80
14850;DHT22;7517;48.400;11.770;2022-07-09T11:20:55;27.70;48.00
14850;DHT22;7517;48.400;11.770;2022-07-09T11:23:22;27.80;48.40
14850;DHT22;7517;48.400;11.770;2022-07-09T11:25:49;27.80;48.60
14850;DHT22;7517;48.400;11.770;2022-07-09T11:28:19;27.80;48.80
14850;DHT22;7517;48.400;11.770;2022-07-09T11:30:59;27.80;48.80
14850;DHT22;7517;48.400;11.770;2022-07-09T11:33:26;27.80;47.50
14850;DHT22;7517;48.400;11.770;2022-07-09T11:36:14;27.80;48.80
14850;DHT22;7517;48.400;11.770;2022-07-09T11:38:47;27.80;48.00
14850;DHT22;7517;48.400;11.770;2022-07-09T11:41:14;27.80;47.30
14850;DHT22;7517;48.400;11.770;2022-07-09T11:43:46;27.90;47.60
14850;DHT22;7517;48.400;11.770;2022-07-09T11:46:17;27.90;47.30
14850;DHT22;7517;48.400;11.770;2022-07-09T11:48:49;28.00;47.60
14850;DHT22;7517;48.400;11.770;2022-07-09T11:51:26;28.00;47.40
14850;DHT22;7517;48.400;11.770;2022-07-09T11:53:54;28.00;46.60
14850;DHT22;7517;48.400;11.770;2022-07-09T11:56:21;28.00;46.90
14850;DHT22;7517;48.400;11.770;2022-07-09T11:58:49;28.00;47.20
14850;DHT22;7517;48.400;11.770;2022-07-09T12:01:18;28.00;47.20
14850;DHT22;7517;48.400;11.770;2022-07-09T12:03:47;28.00;46.70
14850;DHT22;7517;48.400;11.770;2022-07-09T12:06:15;28.00;46.50
14850;DHT22;7517;48.400;11.770;2022-07-09T12:08:43;28.00;46.80
14850;DHT22;7517;48.400;11.770;2022-07-09T12:11:10;28.00;46.30
14850;DHT22;7517;48.400;11.770;2022-07-09T12:13:37;28.00;46.60
14850;DHT22;7517;48.400;11.770;2022-07-09T12:16:05;28.00;46.10
14850;DHT22;7517;48.400;11.770;2022-07-09T12:18:33;28.00;45.40
14850;DHT22;7517;48.400;11.770;2022-07-09T12:21:01;28.00;45.70
14850;DHT22;7517;48.400;11.770;2022-07-09T12:23:29;28.00;45.90
14850;DHT22;7517;48.400;11.770;2022-07-09T12:25:58;28.00;45.40
14850;DHT22;7517;48.400;11.770;2022-07-09T12:28:25;27.90;45.70
14850;DHT22;7517;48.400;11.770;2022-07-09T12:30:52;27.90;45.10
14850;DHT22;7517;48.400;11.770;2022-07-09T12:33:19;27.80;45.60
14850;DHT22;7517;48.400;11.770;2022-07-09T12:35:49;27.80;45.80
14850;DHT22;7517;48.400;11.770;2022-07-09T12:38:16;27.70;45.50
14850;DHT22;7517;48.400;11.770;2022-07-09T12:40:43;27.70;45.30
14850;DHT22;7517;48.400;11.770;2022-07-09T12:43:10;27.60;45.00
14850;DHT22;7517;48.400;11.770;2022-07-09T12:45:37;27.60;45.30
14850;DHT22;7517;48.400;11.770;2022-07-09T12:48:10;27.50;45.40
14850;DHT22;7517;48.400;11.770;2022-07-09T12:50:56;27.50;45.70
14850;DHT22;7517;48.400;11.770;2022-07-09T12:53:24;27.50;45.60
14850;DHT22;7517;48.400;11.770;2022-07-09T12:55:51;27.50;45.80
14850;DHT22;7517;48.400;11.770;2022-07-09T12:58:18;27.50;45.40
14850;DHT22;7517;48.400;11.770;2022-07-09T13:00:46;27.50;45.40
14850;DHT22;7517;48.400;11.770;2022-07-09T13:03:13;27.50;45.00
14850;DHT22;7517;48.400;11.770;2022-07-09T13:05:40;27.50;44.90
14850;DHT22;7517;48.400;11.770;2022-07-09T13:08:09;27.50;45.70
14850;DHT22;7517;48.400;11.770;2022-07-09T13:10:36;27.50;44.90
14850;DHT22;7517;48.400;11.770;2022-07-09T13:13:03;27.50;45.10
14850;DHT22;7517;48.400;11.770;2022-07-09T13:15:30;27.50;45.60
14850;DHT22;7517;48.400;11.770;2022-07-09T13:17:57;27.60;45.50
14850;DHT22;7517;48.400;11.770;2022-07-09T13:20:25;27.60;45.70
14850;DHT22;7517;48.400;11.770;2022-07-09T13:22:52;27.60;45.90
14850;DHT22;7517;48.400;11.770;2022-07-09T13:25:20;27.70;45.70
14850;DHT22;7517;48.400;11.770;2022-07-09T13:27:47;27.70;45.80
14850;DHT22;7517;48.400;11.770;2022-07-09T13:30:15;27.70;45.60
14850;DHT22;7517;48.400;11.770;2022-07-09T13:32:46;27.70;45.20
14850;DHT22;7517;48.400;11.770;2022-07-09T13:35:13;27.70;45.00
14850;DHT22;7517;48.400;11.770;2022-07-09T13:37:40;27.70;44.80
14850;DHT22;7517;48.400;11.770;2022-07-09T13:40:08;27.70;45.10
14850;DHT22;7517;48.400;11.770;2022-07-09T13:42:37;27.70;45.20
14850;DHT22;7517;48.400;11.770;2022-07-09T13:45:06;27.70;45.00
14850;DHT22;7517;48.400;11.770;2022-07-09T13:47:33;27.70;45.50
14850;DHT22;7517;48.400;11.770;2022-07-09T13:50:01;27.70;45.40
14850;DHT22;7517;48.400;11.770;2022-07-09T13:52:28;27.70;45.60
14850;DHT22;7517;48.400;11.770;2022-07-09T13:54:55;27.70;45.50
14850;DHT22;7517;48.400;11.770;2022-07-09T13:57:22;27.70;44.90
14850;DHT22;7517;48.400;11.770;2022-07-09T13:59:51;27.70;45.10
14850;DHT22;7517;48.400;11.770;2022-07-09T14:02:18;27.70;44.80
14850;DHT22;7517;48.400;11.770;2022-07-09T14:04:45;27.70;44.40
14850;DHT22;7517;48.400;11.770;2022-07-09T14:07:14;27.70;44.20
14850;DHT22;7517;48.400;11.770;2022-07-09T14:09:41;27.70;44.40
14850;DHT22;7517;48.400;11.770;2022-07-09T14:12:09;27.70;45.00
14850;DHT22;7517;48.400;11.770;2022-07-09T14:14:36;27.70;45.10
14850;DHT22;7517;48.400;11.770;2022-07-09T14:17:05;27.70;45.00
14850;DHT22;7517;48.400;11.770;2022-07-09T14:19:32;27.70;44.70
14850;DHT22;7517;48.400;11.770;2022-07-09T14:21:59;27.70;44.50
14850;DHT22;7517;48.400;11.770;2022-07-09T14:24:26;27.70;44.60
14850;DHT22;7517;48.400;11.770;2022-07-09T14:26:54;27.70;45.30
14850;DHT22;7517;48.400;11.770;2022-07-09T14:29:21;27.70;45.30
14850;DHT22;7517;48.400;11.770;2022-07-09T14:31:48;27.80;45.10
14850;DHT22;7517;48.400;11.770;2022-07-09T14:34:17;27.80;45.20
14850;DHT22;7517;48.400;11.770;2022-07-09T14:36:45;27.80;45.10
14850;DHT22;7517;48.400;11.770;2022-07-09T14:39:13;27.80;44.60
14850;DHT22;7517;48.400;11.770;2022-07-09T14:41:40;27.80;44.60
14850;DHT22;7517;48.400;11.770;2022-07-09T14:44:08;27.80;44.10
14850;DHT22;7517;48.400;11.770;2022-07-09T14:46:36;27.80;44.50
14850;DHT22;7517;48.400;11.770;2022-07-09T14:49:03;27.80;44.60
14850;DHT22;7517;48.400;11.770;2022-07-09T14:51:34;27.80;44.50
14850;DHT22;7517;48.400;11.770;2022-07-09T14:54:03;27.70;44.80
14850;DHT22;7517;48.400;11.770;2022-07-09T14:56:30;27.70;44.10
14850;DHT22;7517;48.400;11.770;2022-07-09T14:58:58;27.70;44.10
14850;DHT22;7517;48.400;11.770;2022-07-09T15:01:25;27.70;43.90
14850;DHT22;7517;48.400;11.770;2022-07-09T15:03:52;27.70;43.90
14850;DHT22;7517;48.400;11.770;2022-07-09T15:06:19;27.70;44.10
14850;DHT22;7517;48.400;11.770;2022-07-09T15:08:48;27.70;44.30
14850;DHT22;7517;48.400;11.770;2022-07-09T15:11:15;27.70;44.80
14850;DHT22;7517;48.400;11.770;2022-07-09T15:13:43;27.70;44.90
14850;DHT22;7517;48.400;11.770;2022-07-09T15:16:10;27.70;44.80
14850;DHT22;7517;48.400;11.770;2022-07-09T15:18:37;27.70;44.80
14850;DHT22;7517;48.400;11.770;2022-07-09T15:21:04;27.70;44.50
14850;DHT22;7517;48.400;11.770;2022-07-09T15:23:34;27.70;44.40
14850;DHT22;7517;48.400;11.770;2022-07-09T15:26:02;27.70;44.30
14850;DHT22;7517;48.400;11.770;2022-07-09T15:28:30;27.70;44.50
14850;DHT22;7517;48.400;11.770;2022-07-09T15:30:57;27.70;44.70
14850;DHT22;7517;48.400;11.770;2022-07-09T15:33:24;27.70;44.90
14850;DHT22;7517;48.400;11.770;2022-07-09T15:35:51;27.70;44.70
14850;DHT22;7517;48.400;11.770;2022-07-09T15:38:18;27.70;44.30